Time;durP1;ratioP1;P1;durP2;ratioP2;P2;SDS_P1;SDS_P2;PMS_P1;PMS_P2;Temp;Humidity;BMP_temperature;BMP_pressure;BME280_temperature;BME280_humidity;BME280_pressure;Samples;Min_cycle;Max_cycle;Signal;HPM_P1;HPM_P2
2022/03/01 00:02:03;;;;;;;19.77;13.20;;;;;;;2.37;61.42;102756.84;5058985;28;20041;-82
2022/03/01 00:04:28;;;;;;;19.00;12.73;;;;;;;2.35;61.45;102756.84;5058612;28;20037;-82
2022/03/01 00:06:54;;;;;;;20.67;13.07;;;;;;;2.29;61.54;102753.44;5058131;28;20041;-82
2022/03/01 00:09:19;;;;;;;19.35;12.55;;;;;;;2.26;61.68;102756.94;5058078;28;20045;-82
2022/03/01 00:11:44;;;;;;;19.30;13.18;;;;;;;2.28;61.75;102765.69;5057932;28;20047;-82
2022/03/01 00:14:09;;;;;;;19.02;13.65;;;;;;;2.24;61.72;102763.97;5057639;28;20051;-82
2022/03/01 00:16:35;;;;;;;18.88;13.00;;;;;;;2.21;62.31;102758.75;5057194;28;20040;-81
2022/03/01 00:19:01;;;;;;;18.88;12.98;;;;;;;2.15;61.96;102751.84;5058147;28;20112;-82
2022/03/01 00:21:28;;;;;;;18.38;12.77;;;;;;;2.16;62.39;102758.78;5057635;28;20041;-82
2022/03/01 00:23:54;;;;;;;21.83;13.13;;;;;;;2.12;62.44;102759.72;5057308;28;20029;-82
2022/03/01 00:26:19;;;;;;;18.58;12.60;;;;;;;2.10;62.48;102764.13;5059351;28;20044;-83
2022/03/01 00:28:45;;;;;;;17.80;12.63;;;;;;;2.03;62.34;102758.06;5064303;28;20040;-82
2022/03/01 00:31:10;;;;;;;18.67;12.80;;;;;;;1.98;62.40;102765.13;5057820;28;20044;-82
2022/03/01 00:33:36;;;;;;;19.50;12.88;;;;;;;1.94;63.46;102759.91;5057388;28;20052;-82
2022/03/01 00:36:01;;;;;;;19.20;13.20;;;;;;;1.88;63.11;102752.09;5056765;28;20446;-82
2022/03/01 00:38:27;;;;;;;20.75;13.43;;;;;;;1.89;63.37;102766.94;5056617;28;20075;-82
2022/03/01 00:40:53;;;;;;;20.98;13.10;;;;;;;1.83;63.75;102760.00;5056669;28;20502;-83
2022/03/01 00:43:19;;;;;;;19.17;12.48;;;;;;;1.82;63.74;102767.00;5057012;28;20091;-82
2022/03/01 00:45:44;;;;;;;21.98;13.02;;;;;;;1.75;63.40;102754.84;5056360;28;20124;-82
2022/03/01 00:48:09;;;;;;;21.08;13.07;;;;;;;1.76;63.91;102766.19;5056413;28;20059;-83
2022/03/01 00:50:35;;;;;;;18.80;13.43;;;;;;;1.69;64.29;102754.03;5056430;28;20385;-82
2022/03/01 00:53:00;;;;;;;17.55;12.40;;;;;;;1.64;63.75;102752.31;5056458;28;20041;-82
2022/03/01 00:55:26;;;;;;;18.05;12.95;;;;;;;1.61;63.72;102754.09;5056747;28;20041;-83
2022/03/01 00:57:51;;;;;;;22.05;12.63;;;;;;;1.58;63.19;102759.34;5056330;28;20399;-82
2022/03/01 01:00:17;;;;;;;17.15;12.55;;;;;;;1.59;63.15;102772.44;5056372;28;20060;-82
2022/03/01 01:02:42;;;;;;;18.75;12.15;;;;;;;1.55;63.33;102769.84;5056801;28;20045;-82
2022/03/01 01:05:08;;;;;;;19.23;13.20;;;;;;;1.47;63.41;102757.69;5056856;28;20033;-82
2022/03/01 01:07:33;;;;;;;18.08;12.05;;;;;;;1.48;63.38;102755.91;5056877;28;20048;-82
2022/03/01 01:09:58;;;;;;;17.27;12.52;;;;;;;1.47;63.85;102759.44;5055850;28;20484;-82
2022/03/01 01:12:24;;;;;;;21.05;12.77;;;;;;;1.45;63.06;102759.44;5055854;28;20099;-82
2022/03/01 01:14:49;;;;;;;19.95;12.02;;;;;;;1.45;63.51;102769.94;5056095;28;20036;-82
2022/03/01 01:17:15;;;;;;;18.55;12.73;;;;;;;1.39;63.31;102758.63;5055867;28;20056;-83
2022/03/01 01:19:41;;;;;;;18.60;12.18;;;;;;;1.38;63.04;102757.78;5057356;28;20029;-83
2022/03/01 01:24:50;;;;;;;18.45;12.25;;;;;;;1.36;63.79;102764.75;5056465;28;20163;-83
2022/03/01 01:27:15;;;;;;;20.83;11.88;;;;;;;1.29;63.44;102753.44;5055939;28;20060;-83
2022/03/01 01:29:40;;;;;;;18.80;12.45;;;;;;;1.32;63.66;102759.56;5055956;28;20086;-82
2022/03/01 01:32:07;;;;;;;18.33;12.25;;;;;;;1.34;63.31;102763.03;5055413;28;20040;-82
2022/03/01 01:34:32;;;;;;;19.85;12.15;;;;;;;1.32;63.39;102757.81;5055178;28;20029;-82
2022/03/01 01:36:57;;;;;;;18.15;12.07;;;;;;;1.29;63.65;102755.19;5055740;28;20041;-83
2022/03/01 01:39:22;;;;;;;19.67;12.35;;;;;;;1.30;63.70;102764.81;5055926;28;20587;-82
2022/03/01 01:41:48;;;;;;;18.10;12.10;;;;;;;1.29;63.95;102763.06;5059222;28;20043;-82
2022/03/01 01:44:13;;;;;;;20.60;11.70;;;;;;;1.22;63.49;102754.38;5059901;28;20044;-82
2022/03/01 01:46:38;;;;;;;17.10;11.65;;;;;;;1.20;63.69;102743.06;5059191;28;20124;-82
2022/03/01 01:49:04;;;;;;;20.30;12.50;;;;;;;1.24;63.34;102757.00;5059581;28;20412;-82
2022/03/01 01:51:29;;;;;;;18.58;11.65;;;;;;;1.25;63.41;102759.59;5059296;28;20083;-83
2022/03/01 01:53:54;;;;;;;19.80;11.85;;;;;;;1.22;63.94;102751.75;5059319;28;20045;-83
2022/03/01 01:56:20;;;;;;;20.25;11.98;;;;;;;1.20;64.06;102742.16;5059399;28;20033;-83
2022/03/01 01:58:45;;;;;;;17.58;11.75;;;;;;;1.25;63.57;102751.75;5040995;28;20037;-82
2022/03/01 02:01:10;;;;;;;19.17;11.80;;;;;;;1.26;63.56;102750.84;5059003;28;20387;-83
2022/03/01 02:03:36;;;;;;;21.90;12.00;;;;;;;1.20;63.63;102748.28;5058987;28;20043;-83
2022/03/01 02:06:02;;;;;;;21.58;12.68;;;;;;;1.26;63.39;102748.22;5058854;28;20119;-82
2022/03/01 02:08:29;;;;;;;21.38;12.10;;;;;;;1.25;63.89;102741.28;5058802;28;20036;-83
2022/03/01 02:10:54;;;;;;;19.05;12.00;;;;;;;1.19;63.85;102737.81;5059230;28;20399;-83
2022/03/01 02:13:20;;;;;;;19.90;12.52;;;;;;;1.26;63.48;102742.13;5058539;28;20048;-82
2022/03/01 02:15:45;;;;;;;18.85;11.93;;;;;;;1.24;63.57;102741.28;5058998;28;20060;-83
2022/03/01 02:18:10;;;;;;;20.40;12.50;;;;;;;1.21;63.48;102739.53;5058846;28;20053;-82
2022/03/01 02:20:36;;;;;;;16.75;11.50;;;;;;;1.27;63.77;102746.50;5058648;28;20060;-82
2022/03/01 02:23:01;;;;;;;16.75;11.88;;;;;;;1.21;63.27;102741.28;5058691;28;20041;-83
2022/03/01 02:25:26;;;;;;;17.67;11.43;;;;;;;1.21;63.00;102746.53;5058154;28;20033;-83
2022/03/01 02:27:53;;;;;;;17.42;11.35;;;;;;;1.18;63.60;102743.94;5058749;28;20399;-82
2022/03/01 02:30:18;;;;;;;17.80;11.75;;;;;;;1.19;63.10;102750.91;5060883;28;20037;-82
2022/03/01 02:32:43;;;;;;;19.50;11.68;;;;;;;1.20;63.70;102743.06;5060918;28;20055;-83
2022/03/01 02:35:11;;;;;;;19.60;12.65;;;;;;;1.21;63.35;102743.91;5059494;28;20483;-83
2022/03/01 02:37:37;;;;;;;19.55;12.10;;;;;;;1.20;63.82;102742.16;5058311;28;20052;-82
2022/03/01 02:40:05;;;;;;;20.98;12.27;;;;;;;1.14;63.52;102732.63;5059938;28;20030;-83
2022/03/01 02:42:31;;;;;;;17.90;11.32;;;;;;;1.19;63.25;102738.69;5061064;28;20094;-83
2022/03/01 02:44:57;;;;;;;21.40;12.27;;;;;;;1.21;63.20;102739.53;5067307;28;20052;-83
2022/03/01 02:47:22;;;;;;;18.92;11.57;;;;;;;1.23;63.10;102735.19;5067413;28;20029;-83
2022/03/01 02:49:48;;;;;;;17.58;11.50;;;;;;;1.26;63.27;102731.66;5075285;28;20020;-82
2022/03/01 02:52:13;;;;;;;19.08;11.82;;;;;;;1.24;62.87;102721.19;5064086;28;20097;-82
2022/03/01 02:54:38;;;;;;;15.02;10.82;;;;;;;1.27;62.43;102715.09;5063344;28;20029;-82
2022/03/01 02:57:04;;;;;;;19.73;11.13;;;;;;;1.34;61.97;102715.91;5072292;28;20037;-82
2022/03/01 02:59:30;;;;;;;18.17;11.68;;;;;;;1.42;62.18;102724.56;5078086;28;20047;-82
2022/03/01 03:01:56;;;;;;;17.52;11.10;;;;;;;1.31;61.66;102706.31;5061728;28;20051;-82
2022/03/01 03:04:22;;;;;;;16.85;11.65;;;;;;;1.44;62.02;102717.56;5079695;28;20017;-82
2022/03/01 03:06:47;;;;;;;17.45;11.55;;;;;;;1.51;61.29;102727.09;5079146;28;20024;-83
2022/03/01 03:09:13;;;;;;;23.10;10.98;;;;;;;1.55;61.35;102720.97;5079369;28;20029;-82
2022/03/01 03:11:38;;;;;;;17.90;11.50;;;;;;;1.52;61.31;102715.75;5079426;28;20041;-83
2022/03/01 03:14:03;;;;;;;19.13;11.15;;;;;;;1.53;61.13;102704.38;5077556;28;20087;-83
2022/03/01 03:16:28;;;;;;;16.13;10.95;;;;;;;1.59;61.45;102712.19;5076551;28;20093;-82
2022/03/01 03:18:54;;;;;;;18.30;11.20;;;;;;;1.62;61.18;102717.41;5072202;28;20047;-82
2022/03/01 03:21:19;;;;;;;18.23;11.48;;;;;;;1.64;61.66;102720.00;5071996;28;20041;-83
2022/03/01 03:23:45;;;;;;;18.85;11.50;;;;;;;1.60;61.34;102720.91;5068455;28;20029;-81
2022/03/01 03:26:10;;;;;;;19.08;11.98;;;;;;;1.63;61.35;102723.50;5088249;22;20056;-61
2022/03/01 03:28:36;;;;;;;17.40;12.02;;;;;;;1.63;61.43;102718.25;5045835;28;20029;-60
2022/03/01 03:31:01;;;;;;;16.50;12.07;;;;;;;1.63;61.60;102719.16;5041225;28;20030;-60
2022/03/01 03:33:27;;;;;;;16.30;11.85;;;;;;;1.64;61.29;102720.00;5035333;28;20546;-60
2022/03/01 03:35:54;;;;;;;21.15;12.13;;;;;;;1.63;61.12;102713.03;5053093;28;20029;-60
2022/03/01 03:38:19;;;;;;;18.42;11.05;;;;;;;1.64;61.09;102725.25;5054754;28;20055;-60
2022/03/01 03:40:44;;;;;;;18.15;11.90;;;;;;;1.62;61.35;102717.41;5054442;28;20056;-60
2022/03/01 03:43:10;;;;;;;19.63;11.98;;;;;;;1.62;61.31;102720.03;5046214;28;20510;-60
2022/03/01 03:45:36;;;;;;;19.08;12.27;;;;;;;1.62;61.28;102719.16;5034774;28;20034;-60
2022/03/01 03:48:01;;;;;;;15.93;11.38;;;;;;;1.61;61.13;102720.91;5035250;28;20115;-59
2022/03/01 03:50:26;;;;;;;16.85;11.68;;;;;;;1.61;61.49;102717.41;5034345;28;20140;-60
2022/03/01 03:52:51;;;;;;;16.08;10.60;;;;;;;1.62;61.19;102713.94;5016436;28;20041;-60
2022/03/01 03:55:17;;;;;;;17.42;11.48;;;;;;;1.62;61.04;102716.53;5034335;28;20046;-60
2022/03/01 03:57:42;;;;;;;18.27;12.18;;;;;;;1.61;61.07;102723.50;5050428;28;20130;-60
2022/03/01 04:00:15;;;;;;;17.15;11.35;;;;;;;1.62;61.42;102725.25;5046816;28;20030;-60
2022/03/01 04:02:40;;;;;;;20.85;11.75;;;;;;;1.62;61.29;102724.41;5033551;28;20057;-60
2022/03/01 04:05:06;;;;;;;17.92;11.50;;;;;;;1.62;61.14;102721.78;5034709;28;20504;-60
2022/03/01 04:07:32;;;;;;;22.13;11.57;;;;;;;1.62;61.36;102721.78;5034269;28;20050;-60
2022/03/01 04:09:57;;;;;;;19.80;12.82;;;;;;;1.62;61.28;102717.41;5034572;28;20227;-60
2022/03/01 04:12:22;;;;;;;19.77;11.63;;;;;;;1.61;60.97;102726.13;5034183;28;20048;-60
2022/03/01 04:14:47;;;;;;;20.50;11.98;;;;;;;1.61;61.22;102722.66;5034036;28;20111;-60
2022/03/01 04:17:13;;;;;;;17.65;11.27;;;;;;;1.61;61.54;102725.28;5041157;28;20051;-60
2022/03/01 04:19:38;;;;;;;18.92;12.40;;;;;;;1.60;61.53;102720.91;5053786;28;20037;-60
2022/03/01 04:22:03;;;;;;;18.33;11.85;;;;;;;1.60;61.15;102726.13;5039221;28;20045;-60
2022/03/01 04:24:28;;;;;;;20.05;12.45;;;;;;;1.59;61.75;102725.28;5034101;28;20069;-60
2022/03/01 04:26:54;;;;;;;20.38;12.60;;;;;;;1.60;61.23;102723.53;5034032;28;20045;-60
2022/03/01 04:29:19;;;;;;;21.20;11.77;;;;;;;1.60;61.24;102724.41;5033868;28;20038;-60
2022/03/01 04:31:44;;;;;;;20.52;12.93;;;;;;;1.60;61.33;102728.75;5033788;28;20048;-60
2022/03/01 04:34:10;;;;;;;18.85;12.27;;;;;;;1.60;61.42;102726.13;5033779;28;20357;-61
2022/03/01 04:36:35;;;;;;;18.42;12.02;;;;;;;1.61;61.27;102734.00;5033876;28;20041;-60
2022/03/01 04:39:00;;;;;;;17.75;12.32;;;;;;;1.62;60.78;102722.66;5033458;28;20029;-60
2022/03/01 04:41:26;;;;;;;17.92;12.48;;;;;;;1.63;61.18;102723.50;5033726;28;20045;-60
2022/03/01 04:43:51;;;;;;;18.55;12.13;;;;;;;1.64;60.65;102715.63;5033556;28;20038;-60
2022/03/01 04:46:18;;;;;;;18.67;12.05;;;;;;;1.66;60.53;102720.84;5051049;28;20041;-60
2022/03/01 04:48:44;;;;;;;17.98;12.18;;;;;;;1.70;60.28;102724.31;5053461;28;20045;-60
2022/03/01 04:51:09;;;;;;;19.08;11.63;;;;;;;1.70;60.74;102714.72;5053301;28;20044;-60
2022/03/01 04:53:35;;;;;;;20.95;12.15;;;;;;;1.73;60.44;102719.06;5053204;28;20040;-60
2022/03/01 04:56:01;;;;;;;17.70;12.25;;;;;;;1.74;60.44;102721.66;5035128;28;20127;-60
2022/03/01 04:58:26;;;;;;;23.77;13.20;;;;;;;1.76;60.17;102712.03;5033410;28;20069;-60
2022/03/01 05:00:54;;;;;;;21.00;13.15;;;;;;;1.78;60.08;102715.53;5033545;28;20060;-60
2022/03/01 05:03:20;;;;;;;17.88;11.52;;;;;;;1.81;60.01;102706.75;5033216;28;20045;-60
2022/03/01 05:05:45;;;;;;;18.67;12.93;;;;;;;1.83;60.15;102713.72;5033065;28;20395;-60
2022/03/01 05:08:10;;;;;;;18.00;12.32;;;;;;;1.85;59.53;102713.72;5033197;28;20065;-60
2022/03/01 05:10:35;;;;;;;19.48;12.40;;;;;;;1.84;60.16;102715.44;5033184;28;20041;-60
2022/03/01 05:13:01;;;;;;;19.38;12.05;;;;;;;1.85;59.71;102709.31;5033083;28;20044;-60
2022/03/01 05:15:28;;;;;;;18.70;12.40;;;;;;;1.87;59.55;102706.69;5032791;28;20446;-60
2022/03/01 05:17:54;;;;;;;16.75;11.63;;;;;;;1.88;59.74;102707.56;5032739;28;20032;-62
2022/03/01 05:20:21;;;;;;;16.38;11.63;;;;;;;1.89;59.73;102704.91;5015850;28;20048;-61
2022/03/01 05:22:47;;;;;;;18.48;12.02;;;;;;;1.91;59.53;102703.16;5033064;28;20041;-62
2022/03/01 05:25:15;;;;;;;20.23;12.07;;;;;;;1.90;59.50;102701.44;5032557;28;20037;-62
2022/03/01 05:27:42;;;;;;;17.65;11.98;;;;;;;1.93;59.76;102693.53;5052909;28;20041;-62
2022/03/01 05:30:11;;;;;;;19.08;11.80;;;;;;;1.95;59.65;102688.25;5052725;28;20594;-62
2022/03/01 05:32:39;;;;;;;18.30;11.00;;;;;;;1.95;59.49;102683.00;5052793;28;20474;-61
2022/03/01 05:35:06;;;;;;;17.33;11.85;;;;;;;1.96;59.72;102685.63;5052814;28;20087;-61
2022/03/01 05:37:32;;;;;;;17.33;11.82;;;;;;;1.99;59.25;102687.34;5052748;28;20128;-63
2022/03/01 05:39:57;;;;;;;18.65;11.60;;;;;;;2.00;58.99;102683.84;5033721;28;20050;-61
2022/03/01 05:42:23;;;;;;;17.73;11.82;;;;;;;2.03;59.20;102689.94;5039723;28;20445;-62
2022/03/01 05:44:49;;;;;;;17.95;12.75;;;;;;;2.04;58.76;102682.94;5052727;28;20045;-61
2022/03/01 05:47:15;;;;;;;17.50;11.07;;;;;;;2.07;58.54;102679.41;5052702;28;20045;-62
2022/03/01 05:49:40;;;;;;;18.70;12.45;;;;;;;2.07;58.30;102677.66;5035695;28;20026;-62
2022/03/01 05:52:05;;;;;;;15.70;11.05;;;;;;;2.07;58.53;102682.91;5032798;28;20069;-62
2022/03/01 05:54:31;;;;;;;18.70;11.50;;;;;;;2.07;58.70;102690.75;5032699;28;20601;-62
2022/03/01 05:56:56;;;;;;;19.45;11.48;;;;;;;2.07;58.13;102685.50;5032932;28;20117;-61
2022/03/01 05:59:21;;;;;;;16.92;12.00;;;;;;;2.05;58.58;102679.44;5033280;28;20087;-62
2022/03/01 06:01:47;;;;;;;21.23;12.95;;;;;;;2.06;58.16;102678.53;5032478;28;20120;-62
2022/03/01 06:04:12;;;;;;;17.27;11.30;;;;;;;2.05;58.96;102682.06;5032698;28;20477;-62
2022/03/01 06:06:37;;;;;;;18.65;12.40;;;;;;;2.03;58.85;102676.81;5033283;28;20037;-62
2022/03/01 06:09:02;;;;;;;21.08;12.05;;;;;;;2.02;58.77;102679.47;5032800;28;20045;-61
2022/03/01 06:11:28;;;;;;;17.83;11.95;;;;;;;2.01;58.63;102682.94;5032457;28;20486;-62
2022/03/01 06:13:53;;;;;;;17.50;11.50;;;;;;;1.99;58.70;102675.09;5032720;28;20074;-62
2022/03/01 06:16:18;;;;;;;18.50;11.88;;;;;;;1.96;59.13;102672.50;5032152;28;20049;-62
2022/03/01 06:18:44;;;;;;;18.98;11.90;;;;;;;1.96;59.02;102672.50;5044165;28;20037;-62
2022/03/01 06:21:09;;;;;;;19.48;11.60;;;;;;;1.93;58.87;102676.94;5052639;28;20041;-62
2022/03/01 06:23:34;;;;;;;18.23;11.82;;;;;;;1.92;59.26;102667.34;5050191;28;20052;-61
2022/03/01 06:26:00;;;;;;;17.63;11.60;;;;;;;1.90;59.15;102675.22;5033047;28;20053;-62
2022/03/01 06:28:25;;;;;;;15.63;11.50;;;;;;;1.89;59.31;102677.84;5036252;28;20034;-62
2022/03/01 06:30:50;;;;;;;18.00;11.93;;;;;;;1.86;59.56;102678.75;5036162;28;20052;-62
2022/03/01 06:33:18;;;;;;;19.55;11.48;;;;;;;1.85;59.51;102691.00;5035931;28;20379;-61
2022/03/01 06:35:44;;;;;;;19.58;12.20;;;;;;;1.83;59.62;102695.38;5039952;28;20041;-62
2022/03/01 06:38:09;;;;;;;17.50;12.43;;;;;;;1.83;59.58;102698.00;5055784;28;20057;-62
2022/03/01 06:40:34;;;;;;;18.70;12.52;;;;;;;1.81;59.87;102697.13;5040951;28;20525;-62
2022/03/01 06:43:00;;;;;;;19.08;12.82;;;;;;;1.82;59.90;102698.00;5035887;28;20034;-62
2022/03/01 06:45:25;;;;;;;18.88;12.18;;;;;;;1.81;60.25;102704.97;5036146;28;20385;-62
2022/03/01 06:47:50;;;;;;;21.63;13.18;;;;;;;1.81;59.98;102710.22;5044543;28;20045;-63
2022/03/01 06:50:16;;;;;;;19.48;12.50;;;;;;;1.82;60.23;102706.72;5054006;28;20486;-62
2022/03/01 06:52:41;;;;;;;18.98;12.80;;;;;;;1.83;60.34;102710.22;5036306;28;20569;-62
2022/03/01 06:55:08;;;;;;;19.27;12.25;;;;;;;1.83;60.52;102710.22;5050396;28;20045;-62
2022/03/01 06:57:34;;;;;;;20.45;12.60;;;;;;;1.85;60.50;102713.72;5045700;28;20029;-63
2022/03/01 07:00:00;;;;;;;20.88;12.70;;;;;;;1.86;60.17;102718.03;5054150;28;20039;-62
2022/03/01 07:02:29;;;;;;;21.80;13.02;;;;;;;1.90;60.26;102713.63;5051822;28;20045;-62
2022/03/01 07:04:54;;;;;;;20.98;12.25;;;;;;;1.93;60.63;102716.22;5053593;28;20072;-62
2022/03/01 07:07:21;;;;;;;19.10;12.55;;;;;;;1.97;60.52;102717.94;5052981;28;20053;-64
2022/03/01 07:09:46;;;;;;;20.10;13.20;;;;;;;2.01;60.59;102712.63;5053268;28;20037;-62
2022/03/01 07:12:12;;;;;;;22.63;13.52;;;;;;;2.06;60.21;102723.09;5052304;28;20039;-62
2022/03/01 07:14:37;;;;;;;20.17;13.25;;;;;;;2.11;60.82;102716.03;5053589;28;20033;-62
2022/03/01 07:17:03;;;;;;;22.00;14.27;;;;;;;2.17;60.06;102723.84;5043622;28;20045;-62
2022/03/01 07:19:28;;;;;;;21.10;13.93;;;;;;;2.24;59.36;102716.78;5034519;28;20037;-62
2022/03/01 07:21:53;;;;;;;22.65;14.27;;;;;;;2.29;59.69;102708.84;5034763;28;20044;-63
2022/03/01 07:24:19;;;;;;;22.52;14.00;;;;;;;2.34;59.71;102718.41;5051060;28;20402;-62
2022/03/01 07:26:44;;;;;;;22.52;14.52;;;;;;;2.39;59.26;102723.59;5052804;28;20053;-61
2022/03/01 07:29:09;;;;;;;24.02;14.80;;;;;;;2.44;59.76;102726.16;5053415;28;20047;-62
2022/03/01 07:31:34;;;;;;;22.23;14.23;;;;;;;2.49;59.39;102721.72;5051803;28;20052;-63
2022/03/01 07:34:00;;;;;;;24.38;14.75;;;;;;;2.53;59.12;102720.78;5052607;28;20457;-62
2022/03/01 07:36:25;;;;;;;25.98;14.35;;;;;;;2.57;59.11;102722.50;5052685;28;20052;-62
2022/03/01 07:38:51;;;;;;;21.92;14.48;;;;;;;2.61;59.15;102732.06;5048826;28;20384;-63
2022/03/01 07:41:16;;;;;;;22.65;14.63;;;;;;;2.66;59.27;102745.13;5052671;28;20044;-62
2022/03/01 07:43:41;;;;;;;24.35;14.93;;;;;;;2.69;58.98;102750.34;5052309;28;20483;-62
2022/03/01 07:46:11;;;;;;;21.58;13.85;;;;;;;2.73;58.61;102746.75;5052731;28;20479;-62
2022/03/01 07:48:36;;;;;;;;;;;;;;;2.78;58.87;102735.34;5048312;28;20036;-62
2022/03/01 07:51:02;;;;;;;20.80;13.70;;;;;;;2.80;57.62;102729.19;5053451;28;19913;-62
2022/03/01 07:53:27;;;;;;;25.00;13.88;;;;;;;2.82;57.84;102730.91;5033920;28;20034;-62
2022/03/01 07:55:52;;;;;;;18.15;13.48;;;;;;;2.84;57.63;102725.66;5033779;28;20046;-62
2022/03/01 07:58:17;;;;;;;21.15;13.80;;;;;;;2.86;57.87;102722.09;5032478;28;20511;-62
2022/03/01 08:00:43;;;;;;;21.83;13.68;;;;;;;2.87;57.64;102715.97;5047847;28;20040;-62
2022/03/01 08:03:08;;;;;;;21.02;13.50;;;;;;;2.88;57.22;102722.97;5049330;28;20112;-62
2022/03/01 08:05:33;;;;;;;22.88;14.57;;;;;;;2.90;57.93;102730.81;5041847;28;20033;-62
2022/03/01 08:07:59;;;;;;;20.63;13.38;;;;;;;2.93;57.48;102738.63;5044683;28;20037;-62
2022/03/01 08:10:25;;;;;;;20.95;13.43;;;;;;;2.94;57.78;102741.22;5048866;28;20045;-62
2022/03/01 08:12:50;;;;;;;21.85;14.05;;;;;;;2.97;57.90;102740.31;5050809;28;20029;-62
2022/03/01 08:15:16;;;;;;;19.95;13.48;;;;;;;3.01;57.70;102742.00;5052557;28;20048;-61
2022/03/01 08:17:56;;;;;;;25.52;15.23;;;;;;;3.05;57.49;102738.47;5052500;28;20044;-61
2022/03/01 08:20:22;;;;;;;20.08;13.80;;;;;;;3.08;57.59;102735.78;5052163;28;20058;-61
2022/03/01 08:22:48;;;;;;;20.88;13.60;;;;;;;3.12;57.30;102747.97;5051846;28;20045;-61
2022/03/01 08:25:14;;;;;;;21.25;13.23;;;;;;;3.16;57.17;102746.16;5051939;28;20094;-61
2022/03/01 08:27:40;;;;;;;21.50;12.73;;;;;;;3.19;57.68;102740.00;5051709;28;20029;-62
2022/03/01 08:30:06;;;;;;;22.25;13.75;;;;;;;3.23;57.80;102747.84;5051186;28;20112;-62
2022/03/01 08:32:32;;;;;;;20.67;13.98;;;;;;;3.29;58.20;102752.09;5052405;28;20037;-61
2022/03/01 08:34:58;;;;;;;20.20;13.38;;;;;;;3.34;58.04;102745.03;5037868;28;20044;-61
2022/03/01 08:37:23;;;;;;;20.88;14.02;;;;;;;3.40;57.98;102749.31;5053328;28;20033;-61
2022/03/01 08:39:48;;;;;;;19.63;14.00;;;;;;;3.46;58.10;102752.69;5040916;28;20541;-61
2022/03/01 08:42:13;;;;;;;22.17;13.75;;;;;;;3.51;57.30;102752.63;5033524;28;20044;-62
2022/03/01 08:44:39;;;;;;;21.98;13.23;;;;;;;3.56;57.54;102756.03;5034015;28;20033;-62
2022/03/01 08:47:04;;;;;;;19.02;13.23;;;;;;;3.62;56.82;102761.22;5036553;28;20043;-63
2022/03/01 08:49:29;;;;;;;20.90;13.98;;;;;;;3.69;57.77;102762.81;5021607;28;20037;-62
2022/03/01 08:51:55;;;;;;;20.73;12.63;;;;;;;3.75;56.33;102756.63;5050669;28;20084;-62
2022/03/01 08:54:20;;;;;;;20.20;14.00;;;;;;;3.83;57.15;102764.34;5050419;28;20041;-61
2022/03/01 08:56:45;;;;;;;21.10;14.63;;;;;;;3.88;55.94;102768.66;5050164;28;20029;-62
2022/03/01 08:59:11;;;;;;;23.38;13.23;;;;;;;3.99;56.31;102768.44;5051345;28;20039;-62
2022/03/01 09:01:37;;;;;;;20.40;13.75;;;;;;;4.08;56.48;102776.19;5047963;28;20039;-63
2022/03/01 09:04:02;;;;;;;21.35;14.48;;;;;;;4.20;56.41;102775.09;5050675;28;20135;-62
2022/03/01 09:06:28;;;;;;;19.33;13.43;;;;;;;4.33;56.13;102780.09;5043015;28;20136;-62
2022/03/01 09:08:53;;;;;;;18.85;13.07;;;;;;;4.43;55.49;102772.00;5047461;28;20029;-62
2022/03/01 09:11:19;;;;;;;21.40;13.73;;;;;;;4.52;54.34;102784.13;5050487;28;20040;-62
2022/03/01 09:13:44;;;;;;;19.42;13.60;;;;;;;4.63;54.48;102779.50;5050727;28;20043;-62
2022/03/01 09:16:09;;;;;;;19.05;13.45;;;;;;;4.75;54.00;102780.16;5040759;28;20052;-61
2022/03/01 09:18:36;;;;;;;21.77;13.70;;;;;;;4.84;53.69;102761.53;5051697;28;20375;-61
2022/03/01 09:21:06;;;;;;;20.30;13.35;;;;;;;4.90;52.91;102768.44;5051673;28;20032;-63
2022/03/01 09:23:32;;;;;;;21.80;13.70;;;;;;;4.97;54.73;102768.25;5044061;28;20044;-61
2022/03/01 09:25:58;;;;;;;19.13;12.65;;;;;;;5.05;52.87;102769.88;5051611;28;20048;-62
2022/03/01 09:28:23;;;;;;;19.17;13.00;;;;;;;5.09;52.97;102767.09;5042585;28;20037;-61
2022/03/01 09:30:49;;;;;;;18.20;12.20;;;;;;;5.13;53.03;102766.16;5050068;28;20033;-62
2022/03/01 09:33:14;;;;;;;20.10;13.13;;;;;;;5.17;53.18;102770.44;5050935;28;20036;-62
2022/03/01 09:35:40;;;;;;;20.67;13.52;;;;;;;5.24;52.50;102770.31;5051477;28;20043;-62
2022/03/01 09:38:05;;;;;;;18.40;13.35;;;;;;;5.28;52.27;102767.56;5051592;28;20037;-62
2022/03/01 09:40:30;;;;;;;18.73;13.10;;;;;;;5.37;52.42;102759.41;5040972;28;20033;-61
2022/03/01 09:42:56;;;;;;;19.00;12.77;;;;;;;5.45;52.27;102761.03;5031520;28;20048;-62
2022/03/01 09:45:22;;;;;;;21.35;13.43;;;;;;;5.52;51.25;102771.38;5031910;28;20037;-60
2022/03/01 09:47:47;;;;;;;17.88;13.30;;;;;;;5.63;52.78;102780.78;5044107;28;20033;-61
2022/03/01 09:50:13;;;;;;;19.17;13.20;;;;;;;5.67;51.14;102785.94;5042382;28;20036;-64
2022/03/01 09:52:40;;;;;;;18.00;12.95;;;;;;;5.74;52.13;102773.47;5050151;28;20413;-62
2022/03/01 09:55:06;;;;;;;21.27;13.70;;;;;;;5.81;51.21;102779.44;5049413;28;20055;-61
2022/03/01 09:57:32;;;;;;;17.77;12.88;;;;;;;5.85;50.59;102779.34;5043369;28;20025;-61
2022/03/01 09:59:57;;;;;;;19.83;14.18;;;;;;;5.91;52.06;102778.31;5051610;28;20041;-62
2022/03/01 10:02:36;;;;;;;20.77;13.68;;;;;;;5.99;52.15;102781.66;5054396;28;20037;-61
2022/03/01 10:05:02;;;;;;;20.77;12.60;;;;;;;6.05;50.65;102781.50;5051972;28;20502;-61
2022/03/01 10:07:29;;;;;;;18.95;12.80;;;;;;;6.10;50.66;102790.16;5053999;28;20075;-62
2022/03/01 10:10:03;;;;;;;20.90;12.70;;;;;;;6.17;50.92;102785.56;5054029;28;20036;-62
2022/03/01 10:12:30;;;;;;;17.35;12.65;;;;;;;6.21;50.23;102791.63;5052959;28;20043;-61
2022/03/01 10:14:59;;;;;;;18.63;12.80;;;;;;;6.27;50.32;102791.47;5053603;28;20132;-62
2022/03/01 10:17:33;;;;;;;21.33;13.55;;;;;;;6.35;50.48;102786.84;5051738;28;20398;-61
2022/03/01 10:20:03;;;;;;;19.80;13.45;;;;;;;6.39;49.80;102780.56;5053525;28;20043;-61
2022/03/01 10:22:29;;;;;;;19.77;13.77;;;;;;;6.43;50.40;102779.59;5053671;28;20072;-61
2022/03/01 10:25:03;;;;;;;19.38;12.90;;;;;;;6.51;49.48;102775.84;5053691;28;20041;-62
2022/03/01 10:27:29;;;;;;;19.30;13.07;;;;;;;6.56;49.73;102779.22;5052839;28;20093;-61
2022/03/01 10:29:54;;;;;;;19.33;12.43;;;;;;;6.58;49.53;102777.44;5035692;28;20086;-62
2022/03/01 10:32:19;;;;;;;22.75;13.35;;;;;;;6.65;50.14;102778.97;5053266;28;20029;-61
2022/03/01 10:35:08;;;;;;;17.27;12.55;;;;;;;6.74;50.54;102762.84;5053270;28;20473;-61
2022/03/01 10:37:40;;;;;;;19.48;13.32;;;;;;;6.85;50.39;102763.41;5052620;28;20067;-61
2022/03/01 10:40:15;;;;;;;19.80;13.45;;;;;;;7.00;49.72;102764.72;5053526;28;20041;-61
2022/03/01 10:42:42;;;;;;;24.50;13.35;;;;;;;7.10;48.64;102757.38;5051904;28;20135;-62
2022/03/01 10:45:09;;;;;;;19.65;12.30;;;;;;;7.20;49.57;102763.22;5053471;28;20094;-61
2022/03/01 10:47:35;;;;;;;20.85;13.18;;;;;;;7.31;48.18;102761.13;5054430;28;20060;-62
2022/03/01 10:50:11;;;;;;;19.25;13.25;;;;;;;7.40;48.66;102762.59;5038741;28;20455;-61
2022/03/01 10:52:41;;;;;;;17.67;12.18;;;;;;;7.48;47.40;102762.34;5034323;28;20037;-62
2022/03/01 10:55:23;;;;;;;20.30;13.05;;;;;;;7.64;48.45;102770.63;5035095;28;20491;-61
2022/03/01 10:58:07;;;;;;;20.77;13.02;;;;;;;7.80;48.37;102781.56;5034596;28;20052;-61
2022/03/01 11:00:35;;;;;;;18.58;13.00;;;;;;;7.97;47.16;102785.34;5042250;28;20045;-61
2022/03/01 11:03:02;;;;;;;20.27;12.88;;;;;;;8.08;46.60;102776.19;5054388;28;20053;-61
2022/03/01 11:05:30;;;;;;;19.38;13.25;;;;;;;8.15;46.13;102783.00;5038696;28;20030;-61
2022/03/01 11:08:00;;;;;;;21.50;14.18;;;;;;;8.16;46.15;102779.44;5053905;28;20394;-61
2022/03/01 11:10:25;;;;;;;18.58;13.25;;;;;;;8.24;46.35;102772.06;5053231;28;20059;-61
2022/03/01 11:12:53;;;;;;;19.58;13.23;;;;;;;8.30;45.97;102773.66;5050478;28;20053;-62
2022/03/01 11:15:46;;;;;;;18.35;13.05;;;;;;;8.40;47.12;102780.31;5029361;28;20030;-61